sensor_id;sensor_type;location;lat;lon;timestamp;P1;durP1;ratioP1;P2;durP2;ratioP2
7899;SDS011;3995;50.856;4.404;2023-04-25T00:00:28;13.30;;;3.73;;
7899;SDS011;3995;50.856;4.404;2023-04-25T00:02:56;11.57;;;3.53;;
7899;SDS011;3995;50.856;4.404;2023-04-25T00:05:25;7.50;;;3.20;;
7899;SDS011;3995;50.856;4.404;2023-04-25T00:07:52;15.03;;;4.47;;
7899;SDS011;3995;50.856;4.404;2023-04-25T00:10:21;10.90;;;3.70;;
7899;SDS011;3995;50.856;4.404;2023-04-25T00:12:48;10.10;;;4.27;;
7899;SDS011;3995;50.856;4.404;2023-04-25T00:15:16;10.00;;;3.67;;
7899;SDS011;3995;50.856;4.404;2023-04-25T00:17:43;12.17;;;3.80;;
7899;SDS011;3995;50.856;4.404;2023-04-25T00:20:11;9.60;;;3.63;;
7899;SDS011;3995;50.856;4.404;2023-04-25T00:22:40;11.97;;;4.70;;
7899;SDS011;3995;50.856;4.404;2023-04-25T00:25:07;10.53;;;3.60;;
7899;SDS011;3995;50.856;4.404;2023-04-25T00:27:36;10.33;;;3.30;;
7899;SDS011;3995;50.856;4.404;2023-04-25T00:30:04;9.60;;;3.47;;
7899;SDS011;3995;50.856;4.404;2023-04-25T00:32:32;12.17;;;4.50;;
7899;SDS011;3995;50.856;4.404;2023-04-25T00:35:00;10.80;;;3.73;;
7899;SDS011;3995;50.856;4.404;2023-04-25T00:37:28;13.90;;;4.13;;
7899;SDS011;3995;50.856;4.404;2023-04-25T00:39:57;11.50;;;3.60;;
7899;SDS011;3995;50.856;4.404;2023-04-25T00:42:24;11.60;;;4.13;;
7899;SDS011;3995;50.856;4.404;2023-04-25T00:44:53;11.70;;;4.00;;
7899;SDS011;3995;50.856;4.404;2023-04-25T00:47:21;13.73;;;4.30;;
7899;SDS011;3995;50.856;4.404;2023-04-25T00:49:48;18.77;;;4.07;;
7899;SDS011;3995;50.856;4.404;2023-04-25T00:52:16;16.17;;;4.70;;
7899;SDS011;3995;50.856;4.404;2023-04-25T00:54:43;12.67;;;4.53;;
7899;SDS011;3995;50.856;4.404;2023-04-25T00:57:10;12.93;;;4.07;;
7899;SDS011;3995;50.856;4.404;2023-04-25T00:59:38;11.57;;;4.17;;
7899;SDS011;3995;50.856;4.404;2023-04-25T01:02:08;11.50;;;3.50;;
7899;SDS011;3995;50.856;4.404;2023-04-25T01:04:35;15.87;;;5.23;;
7899;SDS011;3995;50.856;4.404;2023-04-25T01:07:03;12.70;;;4.37;;
7899;SDS011;3995;50.856;4.404;2023-04-25T01:09:30;11.73;;;3.93;;
7899;SDS011;3995;50.856;4.404;2023-04-25T01:11:57;19.77;;;4.60;;
7899;SDS011;3995;50.856;4.404;2023-04-25T01:14:25;16.17;;;4.20;;
7899;SDS011;3995;50.856;4.404;2023-04-25T01:16:52;14.27;;;4.60;;
7899;SDS011;3995;50.856;4.404;2023-04-25T01:19:21;10.03;;;4.20;;
7899;SDS011;3995;50.856;4.404;2023-04-25T01:21:51;11.80;;;4.80;;
7899;SDS011;3995;50.856;4.404;2023-04-25T01:24:18;12.37;;;4.13;;
7899;SDS011;3995;50.856;4.404;2023-04-25T01:26:45;14.93;;;4.37;;
7899;SDS011;3995;50.856;4.404;2023-04-25T01:29:14;14.37;;;4.10;;
7899;SDS011;3995;50.856;4.404;2023-04-25T01:31:42;13.20;;;4.53;;
7899;SDS011;3995;50.856;4.404;2023-04-25T01:34:10;11.40;;;3.93;;
7899;SDS011;3995;50.856;4.404;2023-04-25T01:36:37;12.20;;;4.10;;
7899;SDS011;3995;50.856;4.404;2023-04-25T01:39:06;13.00;;;4.67;;
7899;SDS011;3995;50.856;4.404;2023-04-25T01:41:33;11.80;;;4.13;;
7899;SDS011;3995;50.856;4.404;2023-04-25T01:44:01;10.93;;;4.20;;
7899;SDS011;3995;50.856;4.404;2023-04-25T01:46:28;10.90;;;4.00;;
7899;SDS011;3995;50.856;4.404;2023-04-25T01:48:56;13.73;;;4.73;;
7899;SDS011;3995;50.856;4.404;2023-04-25T01:51:23;7.27;;;4.00;;
7899;SDS011;3995;50.856;4.404;2023-04-25T01:53:50;13.53;;;4.37;;
7899;SDS011;3995;50.856;4.404;2023-04-25T01:56:19;10.03;;;3.83;;
7899;SDS011;3995;50.856;4.404;2023-04-25T01:58:46;13.80;;;4.43;;
7899;SDS011;3995;50.856;4.404;2023-04-25T02:01:14;11.63;;;3.90;;
7899;SDS011;3995;50.856;4.404;2023-04-25T02:03:40;17.30;;;4.53;;
7899;SDS011;3995;50.856;4.404;2023-04-25T02:06:07;12.30;;;4.33;;
7899;SDS011;3995;50.856;4.404;2023-04-25T02:08:34;8.83;;;3.90;;
7899;SDS011;3995;50.856;4.404;2023-04-25T02:11:02;8.20;;;4.23;;
7899;SDS011;3995;50.856;4.404;2023-04-25T02:13:31;24.87;;;5.03;;
7899;SDS011;3995;50.856;4.404;2023-04-25T02:15:58;9.80;;;3.80;;
7899;SDS011;3995;50.856;4.404;2023-04-25T02:18:25;14.63;;;5.30;;
7899;SDS011;3995;50.856;4.404;2023-04-25T02:20:52;13.27;;;4.30;;
7899;SDS011;3995;50.856;4.404;2023-04-25T02:23:19;12.27;;;4.40;;
7899;SDS011;3995;50.856;4.404;2023-04-25T02:25:46;11.33;;;4.30;;
7899;SDS011;3995;50.856;4.404;2023-04-25T02:28:14;11.07;;;4.20;;
7899;SDS011;3995;50.856;4.404;2023-04-25T02:30:43;11.27;;;4.27;;
7899;SDS011;3995;50.856;4.404;2023-04-25T02:33:10;11.97;;;4.27;;
7899;SDS011;3995;50.856;4.404;2023-04-25T02:35:37;10.83;;;4.17;;
7899;SDS011;3995;50.856;4.404;2023-04-25T02:38:04;10.37;;;3.50;;
7899;SDS011;3995;50.856;4.404;2023-04-25T02:40:32;15.57;;;4.30;;
7899;SDS011;3995;50.856;4.404;2023-04-25T02:42:59;9.50;;;4.43;;
7899;SDS011;3995;50.856;4.404;2023-04-25T02:45:26;9.40;;;3.67;;
7899;SDS011;3995;50.856;4.404;2023-04-25T02:47:55;11.60;;;3.40;;
7899;SDS011;3995;50.856;4.404;2023-04-25T02:50:22;9.07;;;3.57;;
7899;SDS011;3995;50.856;4.404;2023-04-25T02:52:49;9.90;;;3.83;;
7899;SDS011;3995;50.856;4.404;2023-04-25T02:55:16;16.33;;;4.43;;
7899;SDS011;3995;50.856;4.404;2023-04-25T02:57:43;11.03;;;3.97;;
7899;SDS011;3995;50.856;4.404;2023-04-25T03:00:10;12.13;;;3.70;;
7899;SDS011;3995;50.856;4.404;2023-04-25T03:02:39;10.37;;;4.50;;
7899;SDS011;3995;50.856;4.404;2023-04-25T03:05:08;8.43;;;3.80;;
7899;SDS011;3995;50.856;4.404;2023-04-25T03:07:35;9.57;;;4.43;;
7899;SDS011;3995;50.856;4.404;2023-04-25T03:10:04;7.60;;;4.90;;
7899;SDS011;3995;50.856;4.404;2023-04-25T03:12:32;11.07;;;4.20;;
7899;SDS011;3995;50.856;4.404;2023-04-25T03:14:59;8.87;;;3.47;;
7899;SDS011;3995;50.856;4.404;2023-04-25T03:17:26;21.90;;;5.03;;
7899;SDS011;3995;50.856;4.404;2023-04-25T03:19:54;11.73;;;4.00;;
7899;SDS011;3995;50.856;4.404;2023-04-25T03:22:23;13.03;;;4.37;;
7899;SDS011;3995;50.856;4.404;2023-04-25T03:24:50;17.33;;;5.00;;
7899;SDS011;3995;50.856;4.404;2023-04-25T03:27:17;10.87;;;4.10;;
7899;SDS011;3995;50.856;4.404;2023-04-25T03:29:45;12.90;;;4.23;;
7899;SDS011;3995;50.856;4.404;2023-04-25T03:32:12;11.33;;;3.63;;
7899;SDS011;3995;50.856;4.404;2023-04-25T03:34:39;9.73;;;3.97;;
7899;SDS011;3995;50.856;4.404;2023-04-25T03:37:07;11.33;;;4.27;;
7899;SDS011;3995;50.856;4.404;2023-04-25T03:39:35;15.57;;;4.50;;
7899;SDS011;3995;50.856;4.404;2023-04-25T03:42:03;13.50;;;4.30;;
7899;SDS011;3995;50.856;4.404;2023-04-25T03:44:30;10.10;;;3.83;;
7899;SDS011;3995;50.856;4.404;2023-04-25T03:46:57;13.33;;;4.40;;
7899;SDS011;3995;50.856;4.404;2023-04-25T03:49:24;12.43;;;4.30;;
7899;SDS011;3995;50.856;4.404;2023-04-25T03:51:51;15.43;;;3.97;;
7899;SDS011;3995;50.856;4.404;2023-04-25T03:54:19;9.87;;;4.13;;
7899;SDS011;3995;50.856;4.404;2023-04-25T03:56:47;12.67;;;4.23;;
7899;SDS011;3995;50.856;4.404;2023-04-25T03:59:14;9.10;;;3.93;;
7899;SDS011;3995;50.856;4.404;2023-04-25T04:01:42;12.47;;;4.00;;
7899;SDS011;3995;50.856;4.404;2023-04-25T04:04:09;11.27;;;4.20;;
7899;SDS011;3995;50.856;4.404;2023-04-25T04:06:36;13.30;;;4.33;;
7899;SDS011;3995;50.856;4.404;2023-04-25T04:09:03;11.83;;;4.07;;
7899;SDS011;3995;50.856;4.404;2023-04-25T04:11:34;6.97;;;3.23;;
7899;SDS011;3995;50.856;4.404;2023-04-25T04:14:04;13.10;;;4.87;;
7899;SDS011;3995;50.856;4.404;2023-04-25T04:16:32;13.67;;;4.13;;
7899;SDS011;3995;50.856;4.404;2023-04-25T04:18:59;10.73;;;4.07;;
7899;SDS011;3995;50.856;4.404;2023-04-25T04:21:27;9.50;;;3.50;;
7899;SDS011;3995;50.856;4.404;2023-04-25T04:23:55;12.00;;;5.07;;
7899;SDS011;3995;50.856;4.404;2023-04-25T04:26:22;10.47;;;3.87;;
7899;SDS011;3995;50.856;4.404;2023-04-25T04:28:51;13.03;;;4.40;;
7899;SDS011;3995;50.856;4.404;2023-04-25T04:31:20;23.07;;;4.37;;
7899;SDS011;3995;50.856;4.404;2023-04-25T04:33:47;10.23;;;3.60;;
7899;SDS011;3995;50.856;4.404;2023-04-25T04:36:15;10.90;;;3.57;;
7899;SDS011;3995;50.856;4.404;2023-04-25T04:38:44;12.23;;;3.90;;
7899;SDS011;3995;50.856;4.404;2023-04-25T04:41:12;6.63;;;4.10;;
7899;SDS011;3995;50.856;4.404;2023-04-25T04:43:39;11.03;;;4.37;;
7899;SDS011;3995;50.856;4.404;2023-04-25T04:46:06;12.30;;;4.63;;
7899;SDS011;3995;50.856;4.404;2023-04-25T04:48:36;8.73;;;3.50;;
7899;SDS011;3995;50.856;4.404;2023-04-25T04:51:05;10.03;;;4.07;;
7899;SDS011;3995;50.856;4.404;2023-04-25T04:53:32;13.70;;;4.17;;
7899;SDS011;3995;50.856;4.404;2023-04-25T04:55:59;16.43;;;4.27;;
7899;SDS011;3995;50.856;4.404;2023-04-25T04:58:27;13.90;;;4.73;;
7899;SDS011;3995;50.856;4.404;2023-04-25T05:00:55;16.40;;;4.43;;
7899;SDS011;3995;50.856;4.404;2023-04-25T05:03:22;15.40;;;4.83;;
7899;SDS011;3995;50.856;4.404;2023-04-25T05:05:51;15.73;;;5.13;;
7899;SDS011;3995;50.856;4.404;2023-04-25T05:08:18;8.30;;;3.47;;
7899;SDS011;3995;50.856;4.404;2023-04-25T05:10:46;13.67;;;4.37;;
7899;SDS011;3995;50.856;4.404;2023-04-25T05:13:14;9.83;;;4.13;;
7899;SDS011;3995;50.856;4.404;2023-04-25T05:15:41;9.60;;;4.20;;
7899;SDS011;3995;50.856;4.404;2023-04-25T05:18:08;14.23;;;5.60;;
7899;SDS011;3995;50.856;4.404;2023-04-25T05:20:35;11.13;;;5.23;;
7899;SDS011;3995;50.856;4.404;2023-04-25T05:23:03;10.80;;;3.93;;
7899;SDS011;3995;50.856;4.404;2023-04-25T05:25:31;12.20;;;4.70;;
7899;SDS011;3995;50.856;4.404;2023-04-25T05:27:58;6.70;;;3.30;;
7899;SDS011;3995;50.856;4.404;2023-04-25T05:30:25;9.87;;;3.50;;
7899;SDS011;3995;50.856;4.404;2023-04-25T05:32:52;7.53;;;2.77;;
7899;SDS011;3995;50.856;4.404;2023-04-25T05:35:19;9.53;;;3.37;;
7899;SDS011;3995;50.856;4.404;2023-04-25T05:37:46;7.90;;;3.67;;
7899;SDS011;3995;50.856;4.404;2023-04-25T05:40:15;8.17;;;3.67;;
7899;SDS011;3995;50.856;4.404;2023-04-25T05:42:43;7.87;;;3.10;;
7899;SDS011;3995;50.856;4.404;2023-04-25T05:45:10;12.43;;;3.80;;
7899;SDS011;3995;50.856;4.404;2023-04-25T05:47:38;7.20;;;3.67;;
7899;SDS011;3995;50.856;4.404;2023-04-25T05:50:05;13.50;;;3.60;;
7899;SDS011;3995;50.856;4.404;2023-04-25T05:52:33;8.33;;;4.10;;
7899;SDS011;3995;50.856;4.404;2023-04-25T05:55:01;8.13;;;3.70;;
7899;SDS011;3995;50.856;4.404;2023-04-25T05:57:30;8.03;;;3.40;;
7899;SDS011;3995;50.856;4.404;2023-04-25T05:59:57;9.80;;;4.00;;
7899;SDS011;3995;50.856;4.404;2023-04-25T06:02:25;14.13;;;4.17;;
7899;SDS011;3995;50.856;4.404;2023-04-25T06:04:52;13.00;;;4.90;;
7899;SDS011;3995;50.856;4.404;2023-04-25T06:07:19;14.13;;;4.53;;
7899;SDS011;3995;50.856;4.404;2023-04-25T06:09:46;11.13;;;4.07;;
7899;SDS011;3995;50.856;4.404;2023-04-25T06:12:13;13.07;;;4.60;;
7899;SDS011;3995;50.856;4.404;2023-04-25T06:14:41;14.53;;;4.70;;
7899;SDS011;3995;50.856;4.404;2023-04-25T06:17:09;12.80;;;4.57;;
7899;SDS011;3995;50.856;4.404;2023-04-25T06:19:36;14.93;;;4.97;;
7899;SDS011;3995;50.856;4.404;2023-04-25T06:22:03;12.60;;;4.57;;
7899;SDS011;3995;50.856;4.404;2023-04-25T06:24:29;12.07;;;5.00;;
7899;SDS011;3995;50.856;4.404;2023-04-25T06:26:57;11.53;;;5.10;;
7899;SDS011;3995;50.856;4.404;2023-04-25T06:29:24;9.10;;;4.93;;
7899;SDS011;3995;50.856;4.404;2023-04-25T06:31:54;9.00;;;4.20;;
7899;SDS011;3995;50.856;4.404;2023-04-25T06:34:22;12.50;;;4.73;;
7899;SDS011;3995;50.856;4.404;2023-04-25T06:36:49;14.87;;;4.87;;
7899;SDS011;3995;50.856;4.404;2023-04-25T06:39:16;8.50;;;4.77;;
7899;SDS011;3995;50.856;4.404;2023-04-25T06:41:43;14.17;;;4.40;;
7899;SDS011;3995;50.856;4.404;2023-04-25T06:44:10;12.60;;;5.03;;
7899;SDS011;3995;50.856;4.404;2023-04-25T06:46:37;7.93;;;4.00;;
7899;SDS011;3995;50.856;4.404;2023-04-25T06:49:06;14.90;;;4.30;;
7899;SDS011;3995;50.856;4.404;2023-04-25T06:51:33;13.67;;;4.60;;
7899;SDS011;3995;50.856;4.404;2023-04-25T06:54:00;10.53;;;4.10;;
7899;SDS011;3995;50.856;4.404;2023-04-25T06:56:29;7.70;;;3.30;;
7899;SDS011;3995;50.856;4.404;2023-04-25T06:58:56;10.03;;;3.50;;
7899;SDS011;3995;50.856;4.404;2023-04-25T07:01:25;10.20;;;4.17;;
7899;SDS011;3995;50.856;4.404;2023-04-25T07:03:52;6.60;;;3.50;;
7899;SDS011;3995;50.856;4.404;2023-04-25T07:06:21;9.30;;;3.47;;
7899;SDS011;3995;50.856;4.404;2023-04-25T07:08:50;13.10;;;3.77;;
7899;SDS011;3995;50.856;4.404;2023-04-25T07:11:17;14.27;;;3.27;;
7899;SDS011;3995;50.856;4.404;2023-04-25T07:13:45;12.17;;;3.87;;
7899;SDS011;3995;50.856;4.404;2023-04-25T07:16:12;18.53;;;4.33;;
7899;SDS011;3995;50.856;4.404;2023-04-25T07:18:53;13.73;;;3.60;;
7899;SDS011;3995;50.856;4.404;2023-04-25T07:21:22;17.03;;;3.27;;
7899;SDS011;3995;50.856;4.404;2023-04-25T07:23:49;10.00;;;3.37;;
7899;SDS011;3995;50.856;4.404;2023-04-25T07:26:16;10.53;;;3.13;;
7899;SDS011;3995;50.856;4.404;2023-04-25T07:28:43;12.00;;;3.33;;
7899;SDS011;3995;50.856;4.404;2023-04-25T07:31:14;10.70;;;3.80;;
7899;SDS011;3995;50.856;4.404;2023-04-25T07:33:43;10.50;;;3.03;;
7899;SDS011;3995;50.856;4.404;2023-04-25T07:36:10;14.10;;;3.43;;
7899;SDS011;3995;50.856;4.404;2023-04-25T07:38:39;11.37;;;4.33;;
7899;SDS011;3995;50.856;4.404;2023-04-25T07:41:06;9.50;;;4.47;;
7899;SDS011;3995;50.856;4.404;2023-04-25T07:43:34;8.97;;;4.20;;
7899;SDS011;3995;50.856;4.404;2023-04-25T07:46:01;14.03;;;4.03;;
7899;SDS011;3995;50.856;4.404;2023-04-25T07:48:28;24.37;;;4.57;;
7899;SDS011;3995;50.856;4.404;2023-04-25T07:50:56;14.40;;;3.63;;
7899;SDS011;3995;50.856;4.404;2023-04-25T07:53:23;9.03;;;3.50;;
7899;SDS011;3995;50.856;4.404;2023-04-25T07:55:52;9.80;;;3.03;;
7899;SDS011;3995;50.856;4.404;2023-04-25T07:58:19;19.40;;;4.20;;
7899;SDS011;3995;50.856;4.404;2023-04-25T08:00:47;13.63;;;3.97;;
7899;SDS011;3995;50.856;4.404;2023-04-25T08:03:14;12.87;;;3.53;;
7899;SDS011;3995;50.856;4.404;2023-04-25T08:05:41;5.07;;;2.33;;
7899;SDS011;3995;50.856;4.404;2023-04-25T08:08:08;8.67;;;3.23;;
7899;SDS011;3995;50.856;4.404;2023-04-25T08:10:36;16.43;;;2.87;;
7899;SDS011;3995;50.856;4.404;2023-04-25T08:13:04;8.73;;;2.50;;
7899;SDS011;3995;50.856;4.404;2023-04-25T08:15:31;8.17;;;2.67;;
7899;SDS011;3995;50.856;4.404;2023-04-25T08:17:58;11.03;;;3.80;;
7899;SDS011;3995;50.856;4.404;2023-04-25T08:20:25;9.57;;;3.00;;
7899;SDS011;3995;50.856;4.404;2023-04-25T08:22:52;8.90;;;3.13;;
7899;SDS011;3995;50.856;4.404;2023-04-25T08:25:19;10.40;;;3.30;;
7899;SDS011;3995;50.856;4.404;2023-04-25T08:27:47;7.57;;;3.23;;
7899;SDS011;3995;50.856;4.404;2023-04-25T08:30:15;11.20;;;3.37;;
7899;SDS011;3995;50.856;4.404;2023-04-25T08:32:42;6.83;;;2.87;;
7899;SDS011;3995;50.856;4.404;2023-04-25T08:35:09;7.70;;;2.30;;
7899;SDS011;3995;50.856;4.404;2023-04-25T08:37:36;7.53;;;3.03;;
7899;SDS011;3995;50.856;4.404;2023-04-25T08:40:04;9.90;;;3.33;;
7899;SDS011;3995;50.856;4.404;2023-04-25T08:42:34;16.03;;;3.67;;
7899;SDS011;3995;50.856;4.404;2023-04-25T08:45:03;12.40;;;3.23;;
7899;SDS011;3995;50.856;4.404;2023-04-25T08:47:33;10.83;;;3.60;;
7899;SDS011;3995;50.856;4.404;2023-04-25T08:50:01;9.10;;;2.87;;
7899;SDS011;3995;50.856;4.404;2023-04-25T08:52:35;7.50;;;1.90;;
7899;SDS011;3995;50.856;4.404;2023-04-25T08:55:06;6.73;;;2.67;;
7899;SDS011;3995;50.856;4.404;2023-04-25T08:57:35;5.60;;;2.70;;
7899;SDS011;3995;50.856;4.404;2023-04-25T09:00:05;8.87;;;2.73;;
7899;SDS011;3995;50.856;4.404;2023-04-25T09:02:35;11.70;;;3.23;;
7899;SDS011;3995;50.856;4.404;2023-04-25T09:05:02;7.13;;;2.80;;
7899;SDS011;3995;50.856;4.404;2023-04-25T09:07:30;11.97;;;3.10;;
7899;SDS011;3995;50.856;4.404;2023-04-25T09:09:57;6.63;;;2.97;;
7899;SDS011;3995;50.856;4.404;2023-04-25T09:12:27;8.47;;;2.70;;
7899;SDS011;3995;50.856;4.404;2023-04-25T09:15:03;5.37;;;2.10;;
7899;SDS011;3995;50.856;4.404;2023-04-25T09:17:31;9.43;;;2.90;;
7899;SDS011;3995;50.856;4.404;2023-04-25T09:20:07;7.80;;;2.83;;
7899;SDS011;3995;50.856;4.404;2023-04-25T09:22:36;10.50;;;3.00;;
7899;SDS011;3995;50.856;4.404;2023-04-25T09:25:03;4.20;;;1.80;;
7899;SDS011;3995;50.856;4.404;2023-04-25T09:27:34;7.93;;;2.70;;
7899;SDS011;3995;50.856;4.404;2023-04-25T09:30:01;6.40;;;2.40;;
7899;SDS011;3995;50.856;4.404;2023-04-25T09:32:29;14.10;;;2.80;;
7899;SDS011;3995;50.856;4.404;2023-04-25T09:34:57;8.13;;;2.70;;
7899;SDS011;3995;50.856;4.404;2023-04-25T09:37:26;8.90;;;2.70;;
7899;SDS011;3995;50.856;4.404;2023-04-25T09:39:56;6.20;;;2.33;;
7899;SDS011;3995;50.856;4.404;2023-04-25T09:42:25;8.23;;;2.10;;
7899;SDS011;3995;50.856;4.404;2023-04-25T09:44:54;9.50;;;2.80;;
7899;SDS011;3995;50.856;4.404;2023-04-25T09:47:22;10.00;;;2.97;;
7899;SDS011;3995;50.856;4.404;2023-04-25T09:49:51;14.53;;;2.30;;
7899;SDS011;3995;50.856;4.404;2023-04-25T09:52:19;6.30;;;2.23;;
7899;SDS011;3995;50.856;4.404;2023-04-25T09:54:48;16.47;;;3.60;;
7899;SDS011;3995;50.856;4.404;2023-04-25T09:57:17;13.23;;;2.50;;
7899;SDS011;3995;50.856;4.404;2023-04-25T09:59:46;6.33;;;2.90;;
7899;SDS011;3995;50.856;4.404;2023-04-25T10:02:16;3.70;;;1.70;;
7899;SDS011;3995;50.856;4.404;2023-04-25T10:04:47;6.17;;;2.47;;
7899;SDS011;3995;50.856;4.404;2023-04-25T10:07:16;6.43;;;1.77;;
7899;SDS011;3995;50.856;4.404;2023-04-25T10:09:47;7.80;;;2.53;;
7899;SDS011;3995;50.856;4.404;2023-04-25T10:12:20;7.50;;;2.33;;
7899;SDS011;3995;50.856;4.404;2023-04-25T10:14:48;10.03;;;2.73;;
7899;SDS011;3995;50.856;4.404;2023-04-25T10:17:15;4.90;;;1.83;;
7899;SDS011;3995;50.856;4.404;2023-04-25T10:19:43;3.70;;;1.97;;
7899;SDS011;3995;50.856;4.404;2023-04-25T10:22:11;12.77;;;2.20;;
7899;SDS011;3995;50.856;4.404;2023-04-25T10:24:45;3.73;;;2.13;;
7899;SDS011;3995;50.856;4.404;2023-04-25T10:27:14;4.73;;;1.70;;
7899;SDS011;3995;50.856;4.404;2023-04-25T10:29:44;2.20;;;1.47;;
7899;SDS011;3995;50.856;4.404;2023-04-25T10:32:31;4.90;;;2.00;;
7899;SDS011;3995;50.856;4.404;2023-04-25T10:35:04;4.80;;;2.13;;
7899;SDS011;3995;50.856;4.404;2023-04-25T10:37:37;4.77;;;1.90;;
7899;SDS011;3995;50.856;4.404;2023-04-25T10:40:08;4.90;;;1.70;;
7899;SDS011;3995;50.856;4.404;2023-04-25T10:42:38;8.53;;;1.87;;
7899;SDS011;3995;50.856;4.404;2023-04-25T10:45:08;6.00;;;2.23;;
7899;SDS011;3995;50.856;4.404;2023-04-25T10:47:43;6.03;;;2.13;;
7899;SDS011;3995;50.856;4.404;2023-04-25T10:50:36;5.37;;;2.53;;
7899;SDS011;3995;50.856;4.404;2023-04-25T10:53:15;5.97;;;2.23;;
7899;SDS011;3995;50.856;4.404;2023-04-25T10:55:49;4.43;;;1.67;;
7899;SDS011;3995;50.856;4.404;2023-04-25T10:58:22;6.40;;;1.90;;
7899;SDS011;3995;50.856;4.404;2023-04-25T11:00:49;4.00;;;1.50;;
7899;SDS011;3995;50.856;4.404;2023-04-25T11:03:16;9.67;;;1.90;;
7899;SDS011;3995;50.856;4.404;2023-04-25T11:05:43;9.63;;;3.00;;
7899;SDS011;3995;50.856;4.404;2023-04-25T11:08:14;3.10;;;2.03;;
7899;SDS011;3995;50.856;4.404;2023-04-25T11:10:51;4.33;;;1.70;;
7899;SDS011;3995;50.856;4.404;2023-04-25T11:13:20;6.93;;;2.57;;
7899;SDS011;3995;50.856;4.404;2023-04-25T11:15:50;10.53;;;2.40;;
7899;SDS011;3995;50.856;4.404;2023-04-25T11:18:17;10.27;;;1.93;;
7899;SDS011;3995;50.856;4.404;2023-04-25T11:20:47;4.93;;;2.27;;
7899;SDS011;3995;50.856;4.404;2023-04-25T11:23:15;7.13;;;2.80;;
7899;SDS011;3995;50.856;4.404;2023-04-25T11:25:42;6.70;;;1.83;;
7899;SDS011;3995;50.856;4.404;2023-04-25T11:28:11;7.70;;;1.80;;
7899;SDS011;3995;50.856;4.404;2023-04-25T11:30:40;8.77;;;2.30;;
7899;SDS011;3995;50.856;4.404;2023-04-25T11:33:15;7.30;;;1.90;;
7899;SDS011;3995;50.856;4.404;2023-04-25T11:35:42;9.30;;;2.10;;
7899;SDS011;3995;50.856;4.404;2023-04-25T11:38:10;9.23;;;2.80;;
7899;SDS011;3995;50.856;4.404;2023-04-25T11:40:37;9.03;;;2.00;;
7899;SDS011;3995;50.856;4.404;2023-04-25T11:43:05;5.90;;;2.00;;
7899;SDS011;3995;50.856;4.404;2023-04-25T11:45:32;23.37;;;3.03;;
7899;SDS011;3995;50.856;4.404;2023-04-25T11:48:02;10.17;;;2.80;;
7899;SDS011;3995;50.856;4.404;2023-04-25T11:50:29;5.17;;;2.13;;
7899;SDS011;3995;50.856;4.404;2023-04-25T11:52:57;11.40;;;2.30;;
7899;SDS011;3995;50.856;4.404;2023-04-25T11:55:24;7.67;;;2.50;;
7899;SDS011;3995;50.856;4.404;2023-04-25T11:57:51;8.47;;;1.60;;
7899;SDS011;3995;50.856;4.404;2023-04-25T12:00:20;6.60;;;2.17;;
7899;SDS011;3995;50.856;4.404;2023-04-25T12:02:51;4.97;;;1.70;;
7899;SDS011;3995;50.856;4.404;2023-04-25T12:05:23;3.27;;;1.47;;
7899;SDS011;3995;50.856;4.404;2023-04-25T12:07:51;2.60;;;1.60;;
7899;SDS011;3995;50.856;4.404;2023-04-25T12:10:19;5.63;;;1.97;;
7899;SDS011;3995;50.856;4.404;2023-04-25T12:12:47;6.10;;;2.03;;
7899;SDS011;3995;50.856;4.404;2023-04-25T12:15:15;4.93;;;1.60;;
7899;SDS011;3995;50.856;4.404;2023-04-25T12:17:45;7.30;;;1.83;;
7899;SDS011;3995;50.856;4.404;2023-04-25T12:20:13;5.17;;;1.60;;
7899;SDS011;3995;50.856;4.404;2023-04-25T12:22:42;16.93;;;2.27;;
7899;SDS011;3995;50.856;4.404;2023-04-25T12:25:11;5.33;;;1.60;;
7899;SDS011;3995;50.856;4.404;2023-04-25T12:27:39;3.67;;;1.63;;
7899;SDS011;3995;50.856;4.404;2023-04-25T12:30:07;8.40;;;1.77;;
7899;SDS011;3995;50.856;4.404;2023-04-25T12:32:38;2.57;;;1.10;;
7899;SDS011;3995;50.856;4.404;2023-04-25T12:35:07;3.53;;;1.17;;
7899;SDS011;3995;50.856;4.404;2023-04-25T12:37:34;4.90;;;1.57;;
7899;SDS011;3995;50.856;4.404;2023-04-25T12:40:03;3.10;;;1.37;;
7899;SDS011;3995;50.856;4.404;2023-04-25T12:42:32;2.37;;;1.40;;
7899;SDS011;3995;50.856;4.404;2023-04-25T12:44:59;19.50;;;3.13;;
7899;SDS011;3995;50.856;4.404;2023-04-25T12:47:27;6.87;;;1.53;;
7899;SDS011;3995;50.856;4.404;2023-04-25T12:49:54;8.43;;;1.43;;
7899;SDS011;3995;50.856;4.404;2023-04-25T12:52:21;3.57;;;1.40;;
7899;SDS011;3995;50.856;4.404;2023-04-25T12:54:49;4.10;;;1.33;;
7899;SDS011;3995;50.856;4.404;2023-04-25T12:57:21;2.67;;;1.47;;
7899;SDS011;3995;50.856;4.404;2023-04-25T12:59:47;4.03;;;1.57;;
7899;SDS011;3995;50.856;4.404;2023-04-25T13:02:14;5.90;;;1.70;;
7899;SDS011;3995;50.856;4.404;2023-04-25T13:04:44;6.63;;;1.97;;
7899;SDS011;3995;50.856;4.404;2023-04-25T13:07:11;12.67;;;2.03;;
7899;SDS011;3995;50.856;4.404;2023-04-25T13:09:38;3.77;;;1.80;;
7899;SDS011;3995;50.856;4.404;2023-04-25T13:12:06;5.33;;;2.50;;
7899;SDS011;3995;50.856;4.404;2023-04-25T13:14:38;7.33;;;1.60;;
7899;SDS011;3995;50.856;4.404;2023-04-25T13:17:05;6.07;;;1.60;;
7899;SDS011;3995;50.856;4.404;2023-04-25T13:19:32;7.60;;;1.87;;
7899;SDS011;3995;50.856;4.404;2023-04-25T13:22:00;3.90;;;1.73;;
7899;SDS011;3995;50.856;4.404;2023-04-25T13:24:29;9.17;;;2.23;;
7899;SDS011;3995;50.856;4.404;2023-04-25T13:26:56;4.27;;;1.60;;
7899;SDS011;3995;50.856;4.404;2023-04-25T13:29:23;5.00;;;1.80;;
7899;SDS011;3995;50.856;4.404;2023-04-25T13:31:52;4.37;;;2.10;;
7899;SDS011;3995;50.856;4.404;2023-04-25T13:34:19;4.50;;;1.67;;
7899;SDS011;3995;50.856;4.404;2023-04-25T13:36:47;3.97;;;1.83;;
7899;SDS011;3995;50.856;4.404;2023-04-25T13:39:14;6.10;;;1.63;;
7899;SDS011;3995;50.856;4.404;2023-04-25T13:41:41;2.17;;;1.23;;
7899;SDS011;3995;50.856;4.404;2023-04-25T13:44:08;4.33;;;1.67;;
7899;SDS011;3995;50.856;4.404;2023-04-25T13:46:36;5.60;;;1.80;;
7899;SDS011;3995;50.856;4.404;2023-04-25T13:49:04;6.77;;;1.63;;
7899;SDS011;3995;50.856;4.404;2023-04-25T13:51:32;4.10;;;1.60;;
7899;SDS011;3995;50.856;4.404;2023-04-25T13:53:59;4.40;;;2.03;;
7899;SDS011;3995;50.856;4.404;2023-04-25T13:56:26;3.93;;;2.17;;
7899;SDS011;3995;50.856;4.404;2023-04-25T13:58:53;3.17;;;2.00;;
7899;SDS011;3995;50.856;4.404;2023-04-25T14:01:21;4.93;;;1.50;;
7899;SDS011;3995;50.856;4.404;2023-04-25T14:03:49;5.00;;;2.00;;
7899;SDS011;3995;50.856;4.404;2023-04-25T14:06:18;3.70;;;1.57;;
7899;SDS011;3995;50.856;4.404;2023-04-25T14:08:48;3.23;;;1.87;;
7899;SDS011;3995;50.856;4.404;2023-04-25T14:11:15;4.07;;;1.63;;
7899;SDS011;3995;50.856;4.404;2023-04-25T14:13:43;3.10;;;1.50;;
7899;SDS011;3995;50.856;4.404;2023-04-25T14:16:10;7.60;;;2.23;;
7899;SDS011;3995;50.856;4.404;2023-04-25T14:18:38;4.80;;;1.90;;
7899;SDS011;3995;50.856;4.404;2023-04-25T14:21:05;4.13;;;1.50;;
7899;SDS011;3995;50.856;4.404;2023-04-25T14:23:34;2.27;;;1.37;;
7899;SDS011;3995;50.856;4.404;2023-04-25T14:26:01;4.60;;;1.47;;
7899;SDS011;3995;50.856;4.404;2023-04-25T14:28:29;6.00;;;2.60;;
7899;SDS011;3995;50.856;4.404;2023-04-25T14:30:56;6.13;;;2.27;;
7899;SDS011;3995;50.856;4.404;2023-04-25T14:33:23;4.20;;;1.63;;
7899;SDS011;3995;50.856;4.404;2023-04-25T14:35:50;3.80;;;1.70;;
7899;SDS011;3995;50.856;4.404;2023-04-25T14:38:18;4.47;;;1.73;;
7899;SDS011;3995;50.856;4.404;2023-04-25T14:40:49;9.73;;;2.40;;
7899;SDS011;3995;50.856;4.404;2023-04-25T14:43:17;3.83;;;1.77;;
7899;SDS011;3995;50.856;4.404;2023-04-25T14:45:44;5.50;;;2.07;;
7899;SDS011;3995;50.856;4.404;2023-04-25T14:48:14;2.60;;;1.80;;
7899;SDS011;3995;50.856;4.404;2023-04-25T14:50:44;13.03;;;5.77;;
7899;SDS011;3995;50.856;4.404;2023-04-25T14:53:11;2.87;;;1.70;;
7899;SDS011;3995;50.856;4.404;2023-04-25T14:55:40;2.87;;;1.50;;
7899;SDS011;3995;50.856;4.404;2023-04-25T14:58:13;4.10;;;1.90;;
7899;SDS011;3995;50.856;4.404;2023-04-25T15:00:40;3.47;;;1.27;;
7899;SDS011;3995;50.856;4.404;2023-04-25T15:03:08;6.07;;;1.33;;
7899;SDS011;3995;50.856;4.404;2023-04-25T15:05:37;5.80;;;1.97;;
7899;SDS011;3995;50.856;4.404;2023-04-25T15:08:08;8.77;;;2.03;;
7899;SDS011;3995;50.856;4.404;2023-04-25T15:10:35;4.13;;;1.83;;
7899;SDS011;3995;50.856;4.404;2023-04-25T15:13:02;4.63;;;1.73;;